createdAt,value
2019-02-18T00:00:38.154Z,15.47
2019-02-18T00:03:43.616Z,17.37
2019-02-18T00:06:48.573Z,15.80
2019-02-18T00:09:53.683Z,16.67
2019-02-18T00:12:58.658Z,15.90
2019-02-18T00:16:03.581Z,16.23
2019-02-18T00:19:08.493Z,17.60
2019-02-18T00:22:13.446Z,15.30
2019-02-18T00:25:18.630Z,14.90
2019-02-18T00:28:23.928Z,18.40
2019-02-18T00:31:29.326Z,14.90
2019-02-18T00:34:34.369Z,16.07
2019-02-18T00:37:39.449Z,15.13
2019-02-18T00:40:45.424Z,14.00
2019-02-18T00:43:50.688Z,16.87
2019-02-18T00:46:55.611Z,16.60
2019-02-18T00:50:00.489Z,17.87
2019-02-18T00:53:05.386Z,16.67
2019-02-18T00:56:10.438Z,16.97
2019-02-18T00:59:15.527Z,16.53
2019-02-18T01:02:20.629Z,16.67
2019-02-18T01:05:25.823Z,17.37
2019-02-18T01:08:30.780Z,16.17
2019-02-18T01:11:35.895Z,17.30
2019-02-18T01:14:40.842Z,17.27
2019-02-18T01:17:46.055Z,18.00
2019-02-18T01:20:51.317Z,19.57
2019-02-18T01:23:56.325Z,17.10
2019-02-18T01:27:01.221Z,16.80
2019-02-18T01:30:07.749Z,16.30
2019-02-18T01:33:12.829Z,17.23
2019-02-18T01:36:18.096Z,18.13
2019-02-18T01:39:23.012Z,18.23
2019-02-18T01:42:28.108Z,17.30
2019-02-18T01:45:33.113Z,16.93
2019-02-18T01:48:38.041Z,18.47
2019-02-18T01:51:43.070Z,16.23
2019-02-18T01:54:48.111Z,18.63
2019-02-18T01:57:53.251Z,18.80
2019-02-18T02:00:58.218Z,16.40
2019-02-18T02:04:03.605Z,16.23
2019-02-18T02:07:08.800Z,17.40
2019-02-18T02:10:15.171Z,15.63
2019-02-18T02:13:33.551Z,17.00
2019-02-18T02:16:38.452Z,16.33
2019-02-18T02:19:43.592Z,16.40
2019-02-18T02:22:48.443Z,17.13
2019-02-18T02:25:53.597Z,15.50
2019-02-18T02:28:58.595Z,16.20
2019-02-18T02:32:03.648Z,16.27
2019-02-18T02:35:09.045Z,15.73
2019-02-18T02:38:14.110Z,16.10
2019-02-18T02:41:37.976Z,16.23
2019-02-18T02:44:43.039Z,16.57
2019-02-18T02:47:48.306Z,14.80
2019-02-18T02:50:53.325Z,15.70
2019-02-18T02:53:58.577Z,16.20
2019-02-18T02:57:03.806Z,13.93
2019-02-18T03:00:10.104Z,16.40
2019-02-18T03:03:15.105Z,15.03
2019-02-18T03:06:20.248Z,15.77
2019-02-18T03:09:25.198Z,16.43
2019-02-18T03:12:30.332Z,15.80
2019-02-18T03:15:35.179Z,16.57
2019-02-18T03:18:40.116Z,16.30
2019-02-18T03:21:45.054Z,14.80
2019-02-18T03:25:24.219Z,15.53
2019-02-18T03:29:03.598Z,14.10
2019-02-18T03:32:08.787Z,13.43
2019-02-18T03:35:13.850Z,14.23
2019-02-18T03:38:19.061Z,15.33
2019-02-18T03:41:23.968Z,15.20
2019-02-18T03:44:29.130Z,13.90
2019-02-18T03:47:34.056Z,14.87
2019-02-18T03:50:38.939Z,16.27
2019-02-18T03:53:43.845Z,15.07
2019-02-18T03:56:48.902Z,15.67
2019-02-18T03:59:54.032Z,16.30
2019-02-18T04:03:17.794Z,15.20
2019-02-18T04:06:22.751Z,16.90
2019-02-18T04:09:27.668Z,17.63
2019-02-18T04:12:32.595Z,15.90
2019-02-18T04:15:37.741Z,14.70
2019-02-18T04:18:42.677Z,14.50
2019-02-18T04:21:47.756Z,16.97
2019-02-18T04:24:52.677Z,16.10
2019-02-18T04:27:57.780Z,15.50
2019-02-18T04:31:02.725Z,15.60
2019-02-18T04:34:07.700Z,15.30
2019-02-18T04:37:12.697Z,15.67
2019-02-18T04:40:17.859Z,14.93
2019-02-18T04:43:22.771Z,15.60
2019-02-18T04:46:28.017Z,13.80
2019-02-18T04:49:33.265Z,13.50
2019-02-18T04:52:38.329Z,14.80
2019-02-18T04:55:43.535Z,15.10
2019-02-18T04:58:48.580Z,14.03
2019-02-18T05:01:53.647Z,15.87
2019-02-18T05:04:58.615Z,14.03
2019-02-18T05:08:03.605Z,12.50
2019-02-18T05:11:08.894Z,14.27
2019-02-18T05:14:14.177Z,12.53
2019-02-18T05:17:19.159Z,12.50
2019-02-18T05:20:24.101Z,13.10
2019-02-18T05:23:29.329Z,14.43
2019-02-18T05:26:34.554Z,14.37
2019-02-18T05:29:39.548Z,14.17
2019-02-18T05:32:44.619Z,14.33
2019-02-18T05:35:50.023Z,16.70
2019-02-18T05:38:54.851Z,14.90
2019-02-18T05:41:59.926Z,14.17
2019-02-18T05:45:05.045Z,15.40
2019-02-18T05:48:10.397Z,14.70
2019-02-18T05:51:15.404Z,18.20
2019-02-18T05:54:20.646Z,15.17
2019-02-18T05:57:25.708Z,13.07
2019-02-18T06:00:30.916Z,14.30
2019-02-18T06:03:36.397Z,12.90
2019-02-18T06:06:41.441Z,11.27
2019-02-18T06:09:46.529Z,13.17
2019-02-18T06:12:51.498Z,12.80
2019-02-18T06:15:56.603Z,13.20
2019-02-18T06:19:01.613Z,12.80
2019-02-18T06:22:06.676Z,12.83
2019-02-18T06:25:11.657Z,12.60
2019-02-18T06:28:16.572Z,12.57
2019-02-18T06:31:21.433Z,12.00
2019-02-18T06:34:26.363Z,14.57
2019-02-18T06:37:31.310Z,12.77
2019-02-18T06:40:36.317Z,13.20
2019-02-18T06:43:41.473Z,11.60
2019-02-18T06:46:56.760Z,14.07
2019-02-18T06:50:01.976Z,13.50
2019-02-18T06:53:06.949Z,13.87
2019-02-18T06:56:11.997Z,12.73
2019-02-18T06:59:23.372Z,13.00
2019-02-18T07:02:46.285Z,13.13
2019-02-18T07:06:07.850Z,13.93
2019-02-18T07:09:31.810Z,14.43
2019-02-18T07:12:40.210Z,12.27
2019-02-18T07:15:45.110Z,15.00
2019-02-18T07:18:50.122Z,12.23
2019-02-18T07:21:55.060Z,14.00
2019-02-18T07:24:59.984Z,11.70
2019-02-18T07:28:04.917Z,11.67
2019-02-18T07:31:09.799Z,12.67
2019-02-18T07:34:14.996Z,11.60
2019-02-18T07:37:19.922Z,11.90
2019-02-18T07:40:25.083Z,11.93
2019-02-18T07:43:31.034Z,10.47
2019-02-18T07:46:36.186Z,9.50
2019-02-18T07:49:41.126Z,8.60
2019-02-18T07:52:46.256Z,11.27
2019-02-18T07:55:51.230Z,13.23
2019-02-18T07:58:56.320Z,15.70
2019-02-18T08:02:01.289Z,18.80
2019-02-18T08:05:06.341Z,19.00
2019-02-18T08:08:11.402Z,19.00
2019-02-18T08:11:16.433Z,18.60
2019-02-18T08:14:23.600Z,18.17
2019-02-18T08:17:28.640Z,20.00
2019-02-18T08:20:33.851Z,19.63
2019-02-18T08:23:38.914Z,22.33
2019-02-18T08:26:44.247Z,25.03
2019-02-18T08:29:49.157Z,22.87
2019-02-18T08:32:54.135Z,22.33
2019-02-18T08:35:59.076Z,23.47
2019-02-18T08:39:05.355Z,20.20
2019-02-18T08:42:10.378Z,20.73
2019-02-18T08:45:15.640Z,20.97
2019-02-18T08:48:20.624Z,21.10
2019-02-18T08:51:25.593Z,19.23
2019-02-18T08:54:30.440Z,18.97
2019-02-18T08:57:35.638Z,18.43
2019-02-18T09:00:40.689Z,17.70
2019-02-18T09:03:45.644Z,17.47
2019-02-18T09:06:50.622Z,14.40
2019-02-18T09:09:55.542Z,16.57
2019-02-18T09:13:00.560Z,15.70
2019-02-18T09:16:05.566Z,18.77
2019-02-18T09:19:10.567Z,18.70
2019-02-18T09:22:49.883Z,17.40
2019-02-18T09:25:58.020Z,18.47
2019-02-18T09:29:02.815Z,17.57
2019-02-18T09:32:07.949Z,18.10
2019-02-18T09:35:12.896Z,17.47
2019-02-18T09:38:24.996Z,17.00
2019-02-18T09:41:24.727Z,17.57
2019-02-18T09:44:29.701Z,19.37
2019-02-18T09:47:34.765Z,16.87
2019-02-18T09:50:39.833Z,17.77
2019-02-18T09:53:44.968Z,16.97
2019-02-18T09:56:49.912Z,16.00
2019-02-18T09:59:54.977Z,16.70
2019-02-18T10:03:00.062Z,16.80
2019-02-18T10:06:05.075Z,15.20
2019-02-18T10:09:10.170Z,16.20
2019-02-18T10:12:18.227Z,15.20
2019-02-18T10:15:21.913Z,14.33
2019-02-18T10:18:26.917Z,12.43
2019-02-18T10:21:31.912Z,12.80
2019-02-18T10:24:36.959Z,14.20
2019-02-18T10:27:41.978Z,13.98
2019-02-18T10:30:46.900Z,13.75
2019-02-18T10:33:51.822Z,13.38
2019-02-18T10:36:56.764Z,14.05
2019-02-18T10:40:01.850Z,14.47
2019-02-18T10:43:06.858Z,15.28
2019-02-18T10:46:11.882Z,13.50
2019-02-18T10:49:20.439Z,14.13
2019-02-18T10:52:23.905Z,15.18
2019-02-18T10:55:28.853Z,15.65
2019-02-18T10:58:33.788Z,14.00
2019-02-18T11:01:39.201Z,13.45
2019-02-18T11:04:44.145Z,14.05
2019-02-18T11:07:49.057Z,13.45
2019-02-18T11:10:54.351Z,13.98
2019-02-18T11:13:59.415Z,13.62
2019-02-18T11:17:04.480Z,15.68
2019-02-18T11:20:10.190Z,14.10
2019-02-18T11:23:15.400Z,15.05
2019-02-18T11:26:21.074Z,15.95
2019-02-18T11:29:26.275Z,14.05
2019-02-18T11:32:31.858Z,12.85
2019-02-18T11:35:36.973Z,13.48
2019-02-18T11:38:42.041Z,12.98
2019-02-18T11:41:47.355Z,11.70
2019-02-18T11:44:52.457Z,9.98
2019-02-18T11:47:57.568Z,10.40
2019-02-18T11:51:02.662Z,9.48
2019-02-18T11:54:07.837Z,9.38
2019-02-18T11:57:13.017Z,8.68
2019-02-18T12:00:18.433Z,10.28
2019-02-18T12:03:23.685Z,10.30
2019-02-18T12:06:28.599Z,9.68
2019-02-18T12:09:33.756Z,8.93
2019-02-18T12:12:38.621Z,8.40
2019-02-18T12:15:44.274Z,8.30
2019-02-18T12:18:49.089Z,8.00
2019-02-18T12:21:54.411Z,7.60
2019-02-18T12:24:59.561Z,8.88
2019-02-18T12:28:04.717Z,7.70
2019-02-18T12:31:09.661Z,8.13
2019-02-18T12:34:14.478Z,7.20
2019-02-18T12:37:19.451Z,6.42
2019-02-18T12:40:24.608Z,7.03
2019-02-18T12:43:29.788Z,7.33
2019-02-18T12:46:35.065Z,7.37
2019-02-18T12:49:39.981Z,7.47
2019-02-18T12:52:45.043Z,7.22
2019-02-18T12:55:50.263Z,6.42
2019-02-18T12:58:55.313Z,6.78
2019-02-18T13:02:00.415Z,6.50
2019-02-18T13:05:06.792Z,5.22
2019-02-18T13:08:11.959Z,5.78
2019-02-18T13:11:16.947Z,6.65
2019-02-18T13:14:22.305Z,6.40
2019-02-18T13:17:27.409Z,5.62
2019-02-18T13:20:32.509Z,6.17
2019-02-18T13:23:37.529Z,5.50
2019-02-18T13:26:42.779Z,6.53
2019-02-18T13:29:47.776Z,5.80
2019-02-18T13:32:58.797Z,7.00
2019-02-18T13:36:05.473Z,5.12
2019-02-18T13:39:10.731Z,6.30
2019-02-18T13:42:15.894Z,6.50
2019-02-18T13:45:20.834Z,6.72
2019-02-18T13:48:44.639Z,5.62
2019-02-18T13:51:56.442Z,6.22
2019-02-18T13:54:56.882Z,5.75
2019-02-18T13:58:01.942Z,6.50
2019-02-18T14:01:07.563Z,5.62
2019-02-18T14:04:12.446Z,6.62
2019-02-18T14:07:17.657Z,5.67
2019-02-18T14:10:22.733Z,6.73
2019-02-18T14:13:27.730Z,6.67
2019-02-18T14:16:32.645Z,5.97
2019-02-18T14:19:37.615Z,7.00
2019-02-18T14:22:43.195Z,7.40
2019-02-18T14:25:48.713Z,6.50
2019-02-18T14:28:53.799Z,6.63
2019-02-18T14:31:58.876Z,6.60
2019-02-18T14:35:04.285Z,6.00
2019-02-18T14:38:09.534Z,6.40
2019-02-18T14:41:14.571Z,6.37
2019-02-18T14:44:19.538Z,6.87
2019-02-18T14:47:25.459Z,8.07
2019-02-18T14:50:30.556Z,6.40
2019-02-18T14:53:35.555Z,6.63
2019-02-18T14:56:41.020Z,6.60
2019-02-18T14:59:45.841Z,5.83
2019-02-18T15:02:52.677Z,7.40
2019-02-18T15:05:57.737Z,6.63
2019-02-18T15:09:03.407Z,7.13
2019-02-18T15:12:08.915Z,6.23
2019-02-18T15:15:14.722Z,6.60
2019-02-18T15:18:20.138Z,8.10
2019-02-18T15:21:25.133Z,5.97
2019-02-18T15:24:30.066Z,6.30
2019-02-18T15:27:35.000Z,6.03
2019-02-18T15:30:40.232Z,5.83
2019-02-18T15:33:45.553Z,6.67
2019-02-18T15:36:50.547Z,5.30
2019-02-18T15:39:55.646Z,6.90
2019-02-18T15:43:00.537Z,5.57
2019-02-18T15:46:05.888Z,5.47
2019-02-18T15:49:10.884Z,4.90
2019-02-18T15:52:16.420Z,5.10
2019-02-18T15:55:21.794Z,6.30
2019-02-18T15:58:26.812Z,5.60
2019-02-18T16:01:31.924Z,6.60
2019-02-18T16:04:36.955Z,5.93
2019-02-18T16:07:41.947Z,6.53
2019-02-18T16:10:46.950Z,6.50
2019-02-18T16:13:51.981Z,7.17
2019-02-18T16:16:56.915Z,5.33
2019-02-18T16:20:02.070Z,6.10
2019-02-18T16:23:07.005Z,5.67
2019-02-18T16:26:12.132Z,6.47
2019-02-18T16:29:17.072Z,7.33
2019-02-18T16:32:22.251Z,8.37
2019-02-18T16:35:27.286Z,9.00
2019-02-18T16:38:32.428Z,10.00
2019-02-18T16:41:37.321Z,10.47
2019-02-18T16:44:42.354Z,10.77
2019-02-18T16:47:47.333Z,10.30
2019-02-18T16:50:52.518Z,10.47
2019-02-18T16:53:57.904Z,14.47
2019-02-18T16:57:02.979Z,16.67
2019-02-18T17:00:16.123Z,12.90
2019-02-18T17:03:20.969Z,11.77
2019-02-18T17:06:26.033Z,9.30
2019-02-18T17:09:31.293Z,8.53
2019-02-18T17:12:36.215Z,7.83
2019-02-18T17:15:41.304Z,7.60
2019-02-18T17:18:46.350Z,8.40
2019-02-18T17:21:51.272Z,7.80
2019-02-18T17:24:56.585Z,9.07
2019-02-18T17:28:01.718Z,10.33
2019-02-18T17:31:06.582Z,9.80
2019-02-18T17:34:11.560Z,8.70
2019-02-18T17:37:16.766Z,8.40
2019-02-18T17:40:21.825Z,9.40
2019-02-18T17:43:27.036Z,9.10
2019-02-18T17:46:32.168Z,11.77
2019-02-18T17:49:37.120Z,10.10
2019-02-18T17:52:42.244Z,10.60
2019-02-18T17:55:47.113Z,11.63
2019-02-18T17:58:52.239Z,12.90
2019-02-18T18:01:57.309Z,13.00
2019-02-18T18:05:02.371Z,14.47
2019-02-18T18:08:07.364Z,13.67
2019-02-18T18:11:13.889Z,15.83
2019-02-18T18:14:19.894Z,13.93
2019-02-18T18:17:24.997Z,12.50
2019-02-18T18:20:30.034Z,11.70
2019-02-18T18:23:35.691Z,11.10
2019-02-18T18:26:40.569Z,12.93
2019-02-18T18:29:45.671Z,11.90
2019-02-18T18:32:50.942Z,12.23
2019-02-18T18:35:55.889Z,10.30
2019-02-18T18:39:00.829Z,11.30
2019-02-18T18:42:05.857Z,10.50
2019-02-18T18:45:12.041Z,11.50
2019-02-18T18:48:17.283Z,10.53
2019-02-18T18:51:22.494Z,11.47
2019-02-18T18:54:27.873Z,12.27
2019-02-18T18:57:32.961Z,12.30
2019-02-18T19:00:38.137Z,13.40
2019-02-18T19:03:43.089Z,10.70
2019-02-18T19:06:48.129Z,12.40
2019-02-18T19:09:53.060Z,12.10
2019-02-18T19:12:58.552Z,12.00
2019-02-18T19:16:03.641Z,12.47
2019-02-18T19:19:08.570Z,11.60
2019-02-18T19:22:13.648Z,12.53
2019-02-18T19:25:40.730Z,11.80
2019-02-18T19:28:46.561Z,12.97
2019-02-18T19:31:52.075Z,12.40
2019-02-18T19:34:57.104Z,12.77
2019-02-18T19:38:02.434Z,11.40
2019-02-18T19:41:07.521Z,12.73
2019-02-18T19:44:12.797Z,13.70
2019-02-18T19:47:18.125Z,14.70
2019-02-18T19:50:23.061Z,14.67
2019-02-18T19:53:28.151Z,15.50
2019-02-18T19:56:33.228Z,16.60
2019-02-18T19:59:38.333Z,13.30
2019-02-18T20:02:43.207Z,13.50
2019-02-18T20:05:48.556Z,12.97
2019-02-18T20:08:53.877Z,14.23
2019-02-18T20:11:58.708Z,13.20
2019-02-18T20:15:04.231Z,13.97
2019-02-18T20:18:09.325Z,14.70
2019-02-18T20:21:14.241Z,14.30
2019-02-18T20:24:19.419Z,14.77
2019-02-18T20:27:24.281Z,14.97
2019-02-18T20:30:29.407Z,15.80
2019-02-18T20:33:34.492Z,14.67
2019-02-18T20:36:39.622Z,16.00
2019-02-18T20:39:44.685Z,16.17
2019-02-18T20:42:49.619Z,16.37
2019-02-18T20:45:54.730Z,17.37
2019-02-18T20:49:00.047Z,18.37
2019-02-18T20:52:05.024Z,16.93
2019-02-18T20:55:11.105Z,16.60
2019-02-18T20:58:19.252Z,18.30
2019-02-18T21:01:24.024Z,19.40
2019-02-18T21:04:28.747Z,20.23
2019-02-18T21:07:33.453Z,18.57
2019-02-18T21:10:38.224Z,18.77
2019-02-18T21:13:43.376Z,17.80
2019-02-18T21:16:48.355Z,16.07
2019-02-18T21:19:53.691Z,16.80
2019-02-18T21:22:59.012Z,16.87
2019-02-18T21:26:04.133Z,16.07
2019-02-18T21:29:09.420Z,15.80
2019-02-18T21:32:17.120Z,19.07
2019-02-18T21:35:22.373Z,18.53
2019-02-18T21:38:27.302Z,18.53
2019-02-18T21:41:32.322Z,19.57
2019-02-18T21:44:37.431Z,20.57
2019-02-18T21:47:42.486Z,20.93
2019-02-18T21:50:48.531Z,18.93
2019-02-18T21:53:53.477Z,17.80
2019-02-18T21:56:58.545Z,18.33
2019-02-18T22:00:05.595Z,18.73
2019-02-18T22:03:10.351Z,20.57
2019-02-18T22:06:15.073Z,19.50
2019-02-18T22:09:20.103Z,20.77
2019-02-18T22:12:25.098Z,19.67
2019-02-18T22:15:29.997Z,21.00
2019-02-18T22:18:35.455Z,21.43
2019-02-18T22:21:40.379Z,21.53
2019-02-18T22:24:45.358Z,21.30
2019-02-18T22:27:50.358Z,22.80
2019-02-18T22:30:55.433Z,22.80
2019-02-18T22:34:00.450Z,23.33
2019-02-18T22:37:05.530Z,26.93
2019-02-18T22:40:10.792Z,25.60
2019-02-18T22:43:15.859Z,23.23
2019-02-18T22:46:20.801Z,23.77
2019-02-18T22:49:25.881Z,23.70
2019-02-18T22:52:30.806Z,23.43
2019-02-18T22:55:35.664Z,23.53
2019-02-18T22:58:40.551Z,24.03
2019-02-18T23:01:45.736Z,22.90
2019-02-18T23:04:51.321Z,22.80
2019-02-18T23:07:56.313Z,23.93
2019-02-18T23:11:01.406Z,23.33
2019-02-18T23:14:06.884Z,22.87
2019-02-18T23:17:11.978Z,24.77
2019-02-18T23:20:16.994Z,24.43
2019-02-18T23:23:22.501Z,25.20
2019-02-18T23:26:27.573Z,23.90
2019-02-18T23:29:32.794Z,22.53
2019-02-18T23:32:37.972Z,23.60
2019-02-18T23:35:42.977Z,23.33
2019-02-18T23:38:47.704Z,23.63
2019-02-18T23:41:52.631Z,24.97
2019-02-18T23:44:59.472Z,25.30
2019-02-18T23:48:04.243Z,23.47
2019-02-18T23:51:09.418Z,24.33
2019-02-18T23:54:14.624Z,23.20
2019-02-18T23:57:19.646Z,23.80
